• Join FlightAware (Why Join?)
  • Login
  • US Flag 
03:55PM EDT


 

Airport Tracker/Info


-or-


 

Live Flight TrackerFlight Track Log ✈ FDX1775 ✈ 30-Apr-2013 ✈ KIND - KCID

Flight Track Log - Related Links

Times and Time Zones

All times are in EDT time to prevent confusion due to time zone crossing. See the FDX1775 flight status page for this flight to view local times or setup timezone preferences in your user account.

Time Position Orientation Groundspeed Altitude Reporting Facility
EDT Latitude Longitude Course Direction KTS MPH feet Rate Location/Type
05:17AM 39.8890 -86.6040 North 372 428 14,500  Level FlightAware
05:18AM 39.7279 -86.2932 North  Level FlightAware Approximate
05:18AM 39.9580 -86.6510 332° Northwest 386 444 16,300  Level FlightAware
05:19AM 40.0120 -86.7160 317° Northwest 392 451 18,000 2,400 Climbing FlightAware
05:20AM 40.0490 -86.8110 297° West 400 460 19,700 2,160 Climbing FlightAware
05:20AM 40.0810 -86.8940 297° West 407 468 21,100 2,040 Climbing FlightAware
05:21AM 40.1220 -86.9990 297° West 418 481 22,600 1,800 Climbing FlightAware
05:22AM 40.1580 -87.0870 298° West 427 491 23,700 1,800 Climbing FlightAware
05:22AM 40.1960 -87.1780 299° West 430 495 25,000 1,680 Climbing FlightAware
05:23AM 40.2370 -87.2810 298° West 440 506 26,100 1,440 Climbing FlightAware
05:24AM 40.2740 -87.3740 298° West 447 514 27,100 1,500 Climbing FlightAware
05:24AM 40.3190 -87.4880 297° West 449 517 28,300 1,620 Climbing FlightAware
05:25AM 40.3570 -87.5850 297° West 450 518 29,400 1,680 Climbing FlightAware
05:26AM 40.3950 -87.6840 297° West 447 514 30,600 1,680 Climbing FlightAware
05:27AM 40.4370 -87.7900 298° West 445 512 31,800 1,500 Climbing FlightAware
05:27AM 40.4730 -87.8840 297° West 442 509 32,800 1,500 Climbing FlightAware
05:28AM 40.5160 -87.9930 297° West 437 503 34,000 840 Climbing FlightAware
05:29AM 40.5520 -88.0880 297° West 440 506 34,000  Level FlightAware
05:29AM 40.5900 -88.1840 298° West 442 509 34,000  Level FlightAware
05:30AM 40.6270 -88.2830 296° West 445 512 34,000  Level FlightAware
05:31AM 40.6690 -88.3920 297° West 448 516 34,000  Level FlightAware
05:31AM 40.7090 -88.4980 296° West 451 519 34,000  Level FlightAware
05:32AM 40.7480 -88.6010 297° West 452 520 34,000  Level FlightAware
05:33AM 40.7840 -88.6980 296° West 453 521 34,000  Level FlightAware
05:34AM 40.8250 -88.8060 297° West 451 519 34,000  Level FlightAware
05:34AM 40.8620 -88.9050 296° West 449 517 34,000  Level FlightAware
05:35AM 40.9010 -89.0080 297° West 446 513 34,000  Level FlightAware
05:36AM 40.9410 -89.1150 296° West 445 512 34,000  Level FlightAware
05:36AM 40.9770 -89.2130 296° West 444 511 34,000  Level FlightAware
05:37AM 41.0110 -89.2990 298° West 442 509 34,000  Level FlightAware
05:38AM 41.0530 -89.4040 298° West 439 505 34,000  Level FlightAware
05:38AM 41.0910 -89.4990 298° West 438 504 34,000  Level FlightAware
05:39AM 41.1330 -89.6060 298° West 436 502 34,000  Level FlightAware
05:40AM 41.1710 -89.7040 297° West 436 502 34,000  Level FlightAware
05:40AM 41.2060 -89.7940 297° West 436 502 34,000  Level FlightAware
05:41AM 41.2500 -89.9060 298° West 438 504 34,000 -300 Level FlightAware
05:42AM 41.2860 -89.9990 297° West 437 503 33,600 -1,860 Descending FlightAware
05:43AM 41.3280 -90.1040 298° West 441 507 31,400 -3,360 Descending FlightAware
05:43AM 41.3660 -90.2050 297° West 455 524 28,900 -3,840 Descending FlightAware
05:44AM 41.4060 -90.3080 297° West 460 529 26,300 -3,420 Descending FlightAware
05:45AM 41.4480 -90.4170 297° West 445 512 24,100 -3,000 Descending FlightAware
05:45AM 41.4850 -90.5140 297° West 435 501 22,100 -3,000 Descending FlightAware
05:46AM 41.5250 -90.6180 297° West 424 488 19,900 -3,000 Descending FlightAware
05:47AM 41.5560 -90.7010 297° West 418 481 18,100 -2,820 Descending FlightAware
05:47AM 41.5910 -90.7920 297° West 407 468 16,400 -2,700 Descending FlightAware
05:48AM 41.6240 -90.8790 297° West 405 466 14,500 -2,940 Descending FlightAware
05:49AM 41.6620 -90.9820 296° West 395 455 12,300 -1,980 Descending FlightAware
05:49AM 41.6910 -91.0570 297° West 326 375 11,700 -660 Descending FlightAware
05:50AM 41.7190 -91.1320 297° West 259 298 11,400 -780 Descending FlightAware
05:51AM 41.7390 -91.1890 295° West 261 300 10,600 -1,500 Descending FlightAware
05:51AM 41.7570 -91.2340 298° West 278 320 9,700 -1,800 Descending FlightAware
05:51AM 41.7620 -91.2490 294° West 280 322 9,400 -1,800 Descending FlightAware
05:52AM 41.7790 -91.2950 296° West 271 312 8,500 -1,740 Descending FlightAware
05:53AM 41.8060 -91.3680 296° West 253 291 7,000 -1,680 Descending FlightAware
05:53AM 41.8210 -91.4080 297° West 230 265 6,200 -1,560 Descending FlightAware
05:54AM 41.8330 -91.4410 296° West 216 249 5,600 -1,500 Descending FlightAware
05:54AM 41.8410 -91.4610 298° West 200 230 5,200 -1,380 Descending FlightAware
05:55AM 41.8530 -91.4940 296° West 179 206 4,600 -1,140 Descending FlightAware
05:55AM 41.8600 -91.5140 295° West 159 183 4,200 -1,020 Descending FlightAware
05:55AM 41.8690 -91.5380 297° West 140 161 3,700 -1,020 Descending FlightAware
05:56AM 41.8770 -91.5580 298° West 120 138 3,300 -780 Descending FlightAware
05:56AM 41.8820 -91.5760 290° West 108 124 3,000 -600 Descending FlightAware
05:57AM 41.8840 -91.5970 277° West 109 125 2,700 -720 Descending FlightAware
05:57AM 41.8840 -91.6110 270° West 108 124 2,400 -660 Descending FlightAware
05:58AM 41.8840 -91.6360 270° West 113 130 2,100 -360 Descending FlightAware
05:58AM 41.8840 -91.6570 270° West 114 131 2,000 -900 Descending FlightAware
05:59AM 41.8844 -91.6839 270° West 115 132 1,000 -1,440 Descending Chicago Center